createdAt,value
2023-03-17T00:01:50.999Z,100057.50
2023-03-17T00:04:19.974Z,100039.31
2023-03-17T00:06:48.674Z,100020.25
2023-03-17T00:09:18.611Z,100037.59
2023-03-17T00:11:47.646Z,100049.16
2023-03-17T00:14:16.659Z,100036.50
2023-03-17T00:16:49.575Z,100031.38
2023-03-17T00:19:18.900Z,100042.94
2023-03-17T00:21:47.087Z,100045.38
2023-03-17T00:24:15.825Z,100043.00
2023-03-17T00:26:43.827Z,100038.72
2023-03-17T00:29:11.977Z,100018.66
2023-03-17T00:31:40.277Z,100029.03
2023-03-17T00:34:13.074Z,100018.94
2023-03-17T00:36:40.984Z,100016.63
2023-03-17T00:41:41.909Z,100037.00
2023-03-17T00:44:09.674Z,100036.75
2023-03-17T00:46:38.553Z,100037.59
2023-03-17T00:51:44.662Z,100029.88
2023-03-17T00:54:13.717Z,100015.44
2023-03-17T00:56:42.551Z,100008.47
2023-03-17T00:59:20.485Z,100002.44
2023-03-17T01:01:49.122Z,100002.53
2023-03-17T01:04:18.543Z,100013.72
2023-03-17T01:06:46.990Z,100005.63
2023-03-17T01:09:16.458Z,99996.31
2023-03-17T01:11:44.742Z,99990.59
2023-03-17T01:14:13.720Z,99978.94
2023-03-17T01:16:41.809Z,99979.94
2023-03-17T01:19:10.930Z,99972.88
2023-03-17T01:21:40.667Z,99992.13
2023-03-17T01:24:09.573Z,100003.28
2023-03-17T01:26:37.464Z,99998.97
2023-03-17T01:29:06.227Z,99990.91
2023-03-17T01:31:34.122Z,99989.31
2023-03-17T01:34:02.580Z,99993.09
2023-03-17T01:36:30.304Z,99992.50
2023-03-17T01:38:59.486Z,100005.69
2023-03-17T01:41:27.305Z,100004.03
2023-03-17T01:43:55.106Z,99994.78
2023-03-17T01:46:27.574Z,99978.88
2023-03-17T01:49:05.698Z,99972.44
2023-03-17T01:51:38.856Z,99979.50
2023-03-17T01:54:10.824Z,99962.91
2023-03-17T01:56:42.078Z,99958.84
2023-03-17T01:59:15.819Z,99957.56
2023-03-17T02:01:47.318Z,99958.41
2023-03-17T02:04:16.163Z,99949.97
2023-03-17T02:06:57.412Z,99951.16
2023-03-17T02:09:28.955Z,99955.41
2023-03-17T02:11:59.756Z,99937.56
2023-03-17T02:14:28.687Z,99932.41
2023-03-17T02:16:57.330Z,99943.97
2023-03-17T02:19:25.324Z,99941.19
2023-03-17T02:21:56.821Z,99936.00
2023-03-17T02:24:31.961Z,99933.88
2023-03-17T02:27:05.639Z,99928.00
2023-03-17T02:29:37.772Z,99943.06
2023-03-17T02:32:06.534Z,99954.06
2023-03-17T02:34:34.363Z,99944.28
2023-03-17T02:37:03.528Z,99945.28
2023-03-17T02:39:31.830Z,99948.66
2023-03-17T02:41:59.650Z,99958.28
2023-03-17T02:44:27.732Z,99951.63
2023-03-17T02:46:55.570Z,99940.66
2023-03-17T02:49:24.100Z,99932.97
2023-03-17T02:51:52.771Z,99926.41
2023-03-17T02:54:21.838Z,99923.38
2023-03-17T02:56:49.544Z,99923.56
2023-03-17T02:59:18.533Z,99929.09
2023-03-17T03:01:48.469Z,99930.03
2023-03-17T03:04:16.490Z,99913.66
2023-03-17T03:06:44.884Z,99907.22
2023-03-17T03:09:13.029Z,99911.09
2023-03-17T03:11:42.685Z,99898.69
2023-03-17T03:14:11.582Z,99901.09
2023-03-17T03:16:39.532Z,99899.41
2023-03-17T03:19:08.003Z,99889.97
2023-03-17T03:21:36.646Z,99881.44
2023-03-17T03:24:04.773Z,99882.28
2023-03-17T03:26:32.542Z,99890.56
2023-03-17T03:29:02.195Z,99897.50
2023-03-17T03:31:30.080Z,99894.50
2023-03-17T03:33:57.933Z,99889.38
2023-03-17T03:36:26.859Z,99885.41
2023-03-17T03:38:54.651Z,99876.97
2023-03-17T03:41:22.549Z,99892.59
2023-03-17T03:43:50.423Z,99912.19
2023-03-17T03:46:19.606Z,99918.63
2023-03-17T03:48:47.327Z,99911.66
2023-03-17T03:51:15.194Z,99923.22
2023-03-17T03:53:42.942Z,99928.16
2023-03-17T03:56:10.863Z,99924.16
2023-03-17T03:58:38.570Z,99918.91
2023-03-17T04:01:07.276Z,99908.78
2023-03-17T04:03:36.767Z,99918.41
2023-03-17T04:06:04.696Z,99921.16
2023-03-17T04:08:32.809Z,99929.09
2023-03-17T04:11:00.740Z,99940.63
2023-03-17T04:13:28.453Z,99938.63
2023-03-17T04:15:56.491Z,99937.53
2023-03-17T04:18:24.356Z,99947.50
2023-03-17T04:20:53.619Z,99957.75
2023-03-17T04:23:21.376Z,99959.50
2023-03-17T04:25:51.943Z,99962.16
2023-03-17T04:28:20.491Z,99958.94
2023-03-17T04:30:48.214Z,99962.44
2023-03-17T04:33:15.956Z,99960.50
2023-03-17T04:35:43.775Z,99963.94
2023-03-17T04:38:13.937Z,99955.38
2023-03-17T04:40:41.689Z,99940.94
2023-03-17T04:43:10.306Z,99924.84
2023-03-17T04:45:38.411Z,99912.59
2023-03-17T04:48:06.900Z,99904.84
2023-03-17T04:50:34.942Z,99923.84
2023-03-17T04:53:02.750Z,99930.41
2023-03-17T04:55:31.940Z,99938.00
2023-03-17T04:57:59.722Z,99939.06
2023-03-17T05:00:27.942Z,99930.41
2023-03-17T05:02:55.950Z,99930.72
2023-03-17T05:05:23.782Z,99928.19
2023-03-17T05:07:51.533Z,99940.16
2023-03-17T05:10:19.415Z,99949.03
2023-03-17T05:12:48.524Z,99960.28
2023-03-17T05:15:16.470Z,99962.50
2023-03-17T05:17:44.335Z,99955.53
2023-03-17T05:20:13.102Z,99955.75
2023-03-17T05:22:41.742Z,99955.13
2023-03-17T05:25:10.073Z,99948.09
2023-03-17T05:27:37.815Z,99950.41
2023-03-17T05:30:08.342Z,99936.97
2023-03-17T05:32:36.465Z,99938.34
2023-03-17T05:35:06.038Z,99952.84
2023-03-17T05:37:33.805Z,99943.66
2023-03-17T05:40:01.497Z,99955.78
2023-03-17T05:42:29.290Z,99960.28
2023-03-17T05:44:57.007Z,99966.56
2023-03-17T05:47:26.892Z,99962.88
2023-03-17T05:49:54.621Z,99959.22
2023-03-17T05:52:22.310Z,99952.63
2023-03-17T05:54:51.910Z,99967.03
2023-03-17T05:57:19.693Z,99962.09
2023-03-17T05:59:47.645Z,99962.72
2023-03-17T06:02:15.705Z,99968.91
2023-03-17T06:04:44.939Z,99952.66
2023-03-17T06:07:13.073Z,99947.84
2023-03-17T06:09:41.734Z,99968.59
2023-03-17T06:12:10.312Z,99960.56
2023-03-17T06:14:38.011Z,99966.16
2023-03-17T06:17:06.281Z,99963.34
2023-03-17T06:19:34.035Z,99968.69
2023-03-17T06:22:03.100Z,99946.03
2023-03-17T06:24:31.273Z,99944.19
2023-03-17T06:26:59.078Z,99951.28
2023-03-17T06:29:28.461Z,99952.47
2023-03-17T06:31:59.530Z,99956.09
2023-03-17T06:34:29.192Z,99957.16
2023-03-17T06:36:56.951Z,99960.56
2023-03-17T06:39:26.619Z,99962.06
2023-03-17T06:41:54.346Z,99959.69
2023-03-17T06:44:22.096Z,99951.34
2023-03-17T06:46:49.829Z,99957.72
2023-03-17T06:49:17.617Z,99961.41
2023-03-17T06:51:45.519Z,99956.28
2023-03-17T06:54:13.320Z,99947.25
2023-03-17T06:56:42.461Z,99954.78
2023-03-17T06:59:10.454Z,99964.66
2023-03-17T07:01:39.296Z,99975.38
2023-03-17T07:04:07.334Z,99966.94
2023-03-17T07:06:35.279Z,99968.56
2023-03-17T07:09:03.673Z,99966.50
2023-03-17T07:11:32.716Z,99962.50
2023-03-17T07:14:02.601Z,99981.81
2023-03-17T07:16:30.832Z,99970.38
2023-03-17T07:18:58.633Z,99972.03
2023-03-17T07:21:26.419Z,99978.44
2023-03-17T07:23:54.256Z,99986.16
2023-03-17T07:26:22.022Z,99983.56
2023-03-17T07:28:49.738Z,99995.53
2023-03-17T07:31:18.968Z,99980.88
2023-03-17T07:33:47.001Z,99987.34
2023-03-17T07:36:15.892Z,99975.38
2023-03-17T07:38:44.294Z,99968.75
2023-03-17T07:41:12.085Z,99969.34
2023-03-17T07:43:39.801Z,99970.84
2023-03-17T07:46:08.521Z,99978.56
2023-03-17T07:48:40.990Z,99977.28
2023-03-17T07:51:13.688Z,99987.06
2023-03-17T07:53:41.774Z,99977.56
2023-03-17T07:56:10.081Z,99985.47
2023-03-17T07:58:37.844Z,99996.50
2023-03-17T08:01:06.074Z,100009.66
2023-03-17T08:03:34.306Z,100005.41
2023-03-17T08:06:03.618Z,100010.47
2023-03-17T08:08:31.362Z,100012.25
2023-03-17T08:11:03.531Z,100022.75
2023-03-17T08:13:31.701Z,100037.69
2023-03-17T08:15:59.694Z,100044.84
2023-03-17T08:18:27.581Z,100058.28
2023-03-17T08:20:55.404Z,100057.25
2023-03-17T08:23:25.438Z,100057.25
2023-03-17T08:25:58.250Z,100066.69
2023-03-17T08:28:26.227Z,100064.97
2023-03-17T08:30:54.324Z,100061.25
2023-03-17T08:33:22.796Z,100058.56
2023-03-17T08:35:51.534Z,100053.22
2023-03-17T08:38:19.284Z,100039.94
2023-03-17T08:40:50.509Z,100036.50
2023-03-17T08:43:18.999Z,100013.19
2023-03-17T08:45:46.850Z,100002.66
2023-03-17T08:48:15.364Z,99999.44
2023-03-17T08:50:43.494Z,100005.06
2023-03-17T08:53:11.866Z,99999.84
2023-03-17T08:55:39.658Z,99991.06
2023-03-17T08:58:09.537Z,99995.59
2023-03-17T09:00:37.264Z,99989.91
2023-03-17T09:03:05.734Z,99977.44
2023-03-17T09:05:35.668Z,99990.38
2023-03-17T09:08:05.578Z,99997.88
2023-03-17T09:10:33.945Z,100001.72
2023-03-17T09:13:03.986Z,100010.84
2023-03-17T09:15:34.746Z,100021.16
2023-03-17T09:18:03.258Z,100014.44
2023-03-17T09:20:31.512Z,100003.31
2023-03-17T09:22:59.714Z,100021.84
2023-03-17T09:25:28.323Z,100017.69
2023-03-17T09:27:56.735Z,100028.81
2023-03-17T09:30:26.913Z,100030.72
2023-03-17T09:32:56.155Z,100035.22
2023-03-17T09:35:23.981Z,100032.81
2023-03-17T09:37:51.798Z,100033.59
2023-03-17T09:40:22.173Z,100037.47
2023-03-17T09:43:01.348Z,100039.38
2023-03-17T09:45:35.319Z,100042.66
2023-03-17T09:48:26.107Z,100048.22
2023-03-17T09:50:57.546Z,100054.34
2023-03-17T09:53:33.969Z,100057.31
2023-03-17T09:56:06.888Z,100056.56
2023-03-17T09:58:36.351Z,100057.38
2023-03-17T10:01:05.999Z,100060.31
2023-03-17T10:03:35.236Z,100062.50
2023-03-17T10:06:17.910Z,100057.19
2023-03-17T10:08:54.529Z,100053.97
2023-03-17T10:11:31.367Z,100069.63
2023-03-17T10:14:03.526Z,100065.69
2023-03-17T10:16:42.420Z,100070.94
2023-03-17T10:19:22.570Z,100068.59
2023-03-17T10:21:54.740Z,100066.44
2023-03-17T10:24:24.352Z,100070.97
2023-03-17T10:26:53.326Z,100070.09
2023-03-17T10:29:23.821Z,100068.50
2023-03-17T10:31:53.838Z,100071.31
2023-03-17T10:34:26.574Z,100071.81
2023-03-17T10:36:57.036Z,100080.78
2023-03-17T10:39:25.407Z,100076.19
2023-03-17T10:41:57.025Z,100079.84
2023-03-17T10:44:39.653Z,100079.63
2023-03-17T10:47:20.296Z,100074.19
2023-03-17T10:49:49.649Z,100080.38
2023-03-17T10:52:22.202Z,100088.25
2023-03-17T10:54:51.302Z,100087.00
2023-03-17T10:57:19.405Z,100089.66
2023-03-17T10:59:53.356Z,100086.56
2023-03-17T11:02:29.423Z,100085.72
2023-03-17T11:05:05.361Z,100089.41
2023-03-17T11:07:38.099Z,100085.50
2023-03-17T11:10:18.217Z,100084.97
2023-03-17T11:12:48.504Z,100085.13
2023-03-17T11:15:18.455Z,100098.91
2023-03-17T11:17:52.980Z,100087.69
2023-03-17T11:20:32.911Z,100087.53
2023-03-17T11:23:05.841Z,100090.25
2023-03-17T11:25:38.995Z,100088.28
2023-03-17T11:28:17.824Z,100089.44
2023-03-17T11:30:57.140Z,100090.84
2023-03-17T11:33:35.850Z,100093.53
2023-03-17T11:36:19.810Z,100087.06
2023-03-17T11:38:59.612Z,100096.38
2023-03-17T11:41:55.832Z,100094.28
2023-03-17T11:44:46.504Z,100101.88
2023-03-17T11:47:28.397Z,100102.34
2023-03-17T11:50:04.150Z,100090.88
2023-03-17T11:52:41.004Z,100089.13
2023-03-17T11:55:21.505Z,100078.66
2023-03-17T11:57:57.779Z,100087.47
2023-03-17T12:00:31.728Z,100075.34
2023-03-17T12:03:09.496Z,100083.22
2023-03-17T12:05:38.294Z,100082.81
2023-03-17T12:08:13.421Z,100069.69
2023-03-17T12:10:46.332Z,100082.56
2023-03-17T12:13:18.111Z,100085.94
2023-03-17T12:15:52.883Z,100078.72
2023-03-17T12:18:25.564Z,100060.75
2023-03-17T12:20:58.907Z,100068.00
2023-03-17T12:23:38.169Z,100061.75
2023-03-17T12:26:10.747Z,100073.88
2023-03-17T12:28:45.706Z,100071.66
2023-03-17T12:31:18.292Z,100077.25
2023-03-17T12:33:53.558Z,100073.94
2023-03-17T12:36:22.812Z,100078.63
2023-03-17T12:38:57.147Z,100081.13
2023-03-17T12:41:39.426Z,100071.16
2023-03-17T12:44:15.814Z,100072.84
2023-03-17T12:47:11.190Z,100069.16
2023-03-17T12:50:05.760Z,100063.97
2023-03-17T12:52:48.341Z,100060.97
2023-03-17T12:55:19.429Z,100054.31
2023-03-17T12:57:58.691Z,100047.38
2023-03-17T13:00:30.636Z,100044.41
2023-03-17T13:03:24.120Z,100039.47
2023-03-17T13:05:54.210Z,100043.56
2023-03-17T13:08:28.238Z,100043.75
2023-03-17T13:11:27.297Z,100038.91
2023-03-17T13:14:17.365Z,100048.50
2023-03-17T13:16:47.793Z,100043.06
2023-03-17T13:19:21.485Z,100044.06
2023-03-17T13:22:13.988Z,100029.16
2023-03-17T13:24:47.604Z,100033.44
2023-03-17T13:27:43.885Z,100037.09
2023-03-17T13:30:44.262Z,100031.13
2023-03-17T13:33:24.294Z,100018.72
2023-03-17T13:36:23.745Z,100014.19
2023-03-17T13:39:21.753Z,100007.28
2023-03-17T13:42:18.015Z,100012.88
2023-03-17T13:45:22.522Z,100006.31
2023-03-17T13:47:52.454Z,100004.66
2023-03-17T13:50:25.445Z,100007.41
2023-03-17T13:52:57.195Z,100007.47
2023-03-17T13:55:41.149Z,100006.66
2023-03-17T13:58:26.156Z,100004.31
2023-03-17T14:01:03.870Z,99999.53
2023-03-17T14:03:40.055Z,100005.94
2023-03-17T14:06:11.981Z,100003.78
2023-03-17T14:08:45.700Z,100003.47
2023-03-17T14:11:23.996Z,100016.41
2023-03-17T14:14:03.531Z,100023.00
2023-03-17T14:16:35.065Z,100019.72
2023-03-17T14:19:17.608Z,100029.38
2023-03-17T14:21:45.589Z,100031.25
2023-03-17T14:24:22.652Z,100032.06
2023-03-17T14:26:51.753Z,100036.78
2023-03-17T14:29:25.802Z,100038.03
2023-03-17T14:32:05.064Z,100034.41
2023-03-17T14:34:33.408Z,100031.97
2023-03-17T14:37:02.977Z,100027.09
2023-03-17T14:39:31.153Z,100033.44
2023-03-17T14:42:01.651Z,100034.19
2023-03-17T14:44:36.326Z,100042.22
2023-03-17T14:47:08.063Z,100027.81
2023-03-17T14:49:35.884Z,100030.03
2023-03-17T14:52:03.680Z,100028.19
2023-03-17T14:54:34.350Z,100029.75
2023-03-17T14:57:05.004Z,100034.91
2023-03-17T14:59:36.034Z,100034.63
2023-03-17T15:02:18.128Z,100042.47
2023-03-17T15:04:52.704Z,100039.56
2023-03-17T15:07:32.234Z,100027.56
2023-03-17T15:10:01.894Z,100030.75
2023-03-17T15:12:30.957Z,100032.44
2023-03-17T15:15:01.787Z,100035.13
2023-03-17T15:17:34.113Z,100032.34
2023-03-17T15:20:05.491Z,100036.09
2023-03-17T15:22:42.457Z,100033.53
2023-03-17T15:25:21.584Z,100037.09
2023-03-17T15:27:49.493Z,100036.03
2023-03-17T15:30:18.400Z,100040.03
2023-03-17T15:32:52.841Z,100032.34
2023-03-17T15:35:20.926Z,100033.84
2023-03-17T15:37:48.744Z,100035.78
2023-03-17T15:40:16.737Z,100038.34
2023-03-17T15:42:45.411Z,100020.25
2023-03-17T15:45:15.848Z,100042.63
2023-03-17T15:47:44.741Z,100047.75
2023-03-17T15:50:18.908Z,100048.09
2023-03-17T15:52:46.907Z,100048.22
2023-03-17T15:55:21.959Z,100042.72
2023-03-17T15:57:55.079Z,100045.16
2023-03-17T16:00:25.280Z,100049.44
2023-03-17T16:02:54.919Z,100049.31
2023-03-17T16:05:25.941Z,100042.19
2023-03-17T16:07:54.319Z,100052.25
2023-03-17T16:10:24.213Z,100042.84
2023-03-17T16:12:52.509Z,100038.78
2023-03-17T16:15:23.641Z,100046.22
2023-03-17T16:17:53.893Z,100043.81
2023-03-17T16:20:26.075Z,100043.16
2023-03-17T16:22:55.793Z,100036.38
2023-03-17T16:25:25.997Z,100033.94
2023-03-17T16:27:55.806Z,100042.19
2023-03-17T16:30:25.943Z,100035.06
2023-03-17T16:32:55.220Z,100039.78
2023-03-17T16:35:26.163Z,100043.84
2023-03-17T16:37:54.541Z,100036.25
2023-03-17T16:40:25.035Z,100036.13
2023-03-17T16:42:53.265Z,100027.03
2023-03-17T16:45:28.080Z,100025.84
2023-03-17T16:47:57.543Z,100032.59
2023-03-17T16:50:28.034Z,100031.47
2023-03-17T16:52:55.810Z,100031.94
2023-03-17T16:55:25.320Z,100025.63
2023-03-17T16:57:56.256Z,100032.22
2023-03-17T17:00:26.520Z,100042.63
2023-03-17T17:02:54.431Z,100045.06
2023-03-17T17:05:25.259Z,100037.81
2023-03-17T17:07:56.696Z,100040.63
2023-03-17T17:10:26.494Z,100028.81
2023-03-17T17:12:54.632Z,100033.59
2023-03-17T17:15:23.691Z,100024.41
2023-03-17T17:17:54.945Z,100035.31
2023-03-17T17:20:24.596Z,100027.28
2023-03-17T17:22:53.964Z,100036.72
2023-03-17T17:25:21.734Z,100023.53
2023-03-17T17:27:49.885Z,100025.91
2023-03-17T17:30:20.863Z,100031.19
2023-03-17T17:32:49.213Z,100037.50
2023-03-17T17:35:17.202Z,100043.94
2023-03-17T17:37:44.991Z,100043.88
2023-03-17T17:40:16.514Z,100039.41
2023-03-17T17:42:46.365Z,100051.66
2023-03-17T17:45:15.632Z,100063.00
2023-03-17T17:47:43.427Z,100062.41
2023-03-17T17:50:17.478Z,100066.56
2023-03-17T17:52:46.622Z,100067.50
2023-03-17T17:55:16.933Z,100072.16
2023-03-17T17:57:44.771Z,100073.09
2023-03-17T18:00:17.191Z,100078.22
2023-03-17T18:02:45.387Z,100084.34
2023-03-17T18:05:13.837Z,100088.28
2023-03-17T18:07:41.827Z,100084.06
2023-03-17T18:10:16.987Z,100084.25
2023-03-17T18:12:46.394Z,100084.53
2023-03-17T18:15:14.394Z,100093.31
2023-03-17T18:17:43.066Z,100093.19
2023-03-17T18:20:12.903Z,100094.19
2023-03-17T18:22:40.786Z,100089.56
2023-03-17T18:25:09.857Z,100091.50
2023-03-17T18:27:38.097Z,100090.94
2023-03-17T18:30:11.648Z,100098.72
2023-03-17T18:32:40.467Z,100100.94
2023-03-17T18:35:13.113Z,100096.88
2023-03-17T18:37:41.517Z,100096.31
2023-03-17T18:40:15.254Z,100085.22
2023-03-17T18:42:44.224Z,100094.91
2023-03-17T18:45:13.954Z,100104.97
2023-03-17T18:47:42.056Z,100108.06
2023-03-17T18:50:12.754Z,100099.81
2023-03-17T18:52:42.066Z,100100.69
2023-03-17T18:55:12.362Z,100103.19
2023-03-17T18:57:42.547Z,100103.81
2023-03-17T19:00:16.261Z,100104.28
2023-03-17T19:02:44.241Z,100099.91
2023-03-17T19:05:12.770Z,100111.13
2023-03-17T19:07:41.051Z,100111.13
2023-03-17T19:10:09.735Z,100108.22
2023-03-17T19:12:38.243Z,100108.06
2023-03-17T19:15:07.871Z,100115.47
2023-03-17T19:17:37.293Z,100123.22
2023-03-17T19:20:06.162Z,100112.59
2023-03-17T19:22:33.983Z,100126.81
2023-03-17T19:25:04.317Z,100128.31
2023-03-17T19:27:32.151Z,100132.72
2023-03-17T19:29:59.933Z,100136.47
2023-03-17T19:32:27.800Z,100139.03
2023-03-17T19:34:57.000Z,100142.75
2023-03-17T19:37:24.822Z,100144.25
2023-03-17T19:39:52.578Z,100138.22
2023-03-17T19:42:20.373Z,100135.03
2023-03-17T19:44:48.124Z,100143.72
2023-03-17T19:47:15.996Z,100151.19
2023-03-17T19:49:43.818Z,100141.13
2023-03-17T19:52:13.003Z,100140.22
2023-03-17T19:54:44.620Z,100146.75
2023-03-17T19:57:13.174Z,100149.75
2023-03-17T19:59:41.376Z,100138.53
2023-03-17T20:02:12.159Z,100142.72
2023-03-17T20:04:40.049Z,100143.91
2023-03-17T20:07:08.138Z,100138.72
2023-03-17T20:09:37.887Z,100141.03
2023-03-17T20:12:06.112Z,100133.09
2023-03-17T20:14:33.824Z,100136.72
2023-03-17T20:17:01.569Z,100134.63
2023-03-17T20:19:29.361Z,100138.69
2023-03-17T20:21:58.438Z,100132.78
2023-03-17T20:24:27.022Z,100133.97
2023-03-17T20:26:57.932Z,100132.78
2023-03-17T20:29:25.899Z,100135.09
2023-03-17T20:31:53.853Z,100131.84
2023-03-17T20:34:21.728Z,100141.06
2023-03-17T20:36:49.553Z,100145.38
2023-03-17T20:39:19.818Z,100151.84
2023-03-17T20:41:48.234Z,100149.63
2023-03-17T20:44:17.718Z,100153.03
2023-03-17T20:46:46.091Z,100155.53
2023-03-17T20:49:14.594Z,100154.72
2023-03-17T20:51:42.327Z,100159.78
2023-03-17T20:54:10.798Z,100148.56
2023-03-17T20:56:39.727Z,100165.22
2023-03-17T20:59:09.639Z,100153.88
2023-03-17T21:01:40.253Z,100159.03
2023-03-17T21:04:09.832Z,100157.19
2023-03-17T21:06:38.472Z,100159.88
2023-03-17T21:09:06.673Z,100164.72
2023-03-17T21:11:34.701Z,100155.06
2023-03-17T21:14:03.328Z,100153.66
2023-03-17T21:16:31.595Z,100160.88
2023-03-17T21:19:01.300Z,100166.72
2023-03-17T21:21:29.671Z,100158.94
2023-03-17T21:23:57.910Z,100150.59
2023-03-17T21:26:25.724Z,100148.41
2023-03-17T21:28:53.464Z,100147.56
2023-03-17T21:31:21.552Z,100144.16
2023-03-17T21:33:50.631Z,100145.94
2023-03-17T21:36:20.847Z,100141.81
2023-03-17T21:38:48.568Z,100145.03
2023-03-17T21:41:22.309Z,100133.94
2023-03-17T21:43:50.423Z,100137.38
2023-03-17T21:46:18.222Z,100138.03
2023-03-17T21:48:46.074Z,100130.50
2023-03-17T21:51:14.066Z,100135.09
2023-03-17T21:53:43.159Z,100127.72
2023-03-17T21:56:12.606Z,100131.44
2023-03-17T21:58:40.524Z,100132.84
2023-03-17T22:01:09.067Z,100139.72
2023-03-17T22:03:39.425Z,100142.97
2023-03-17T22:06:08.224Z,100140.81
2023-03-17T22:08:36.048Z,100132.28
2023-03-17T22:11:09.936Z,100132.47
2023-03-17T22:13:37.976Z,100126.69
2023-03-17T22:16:06.447Z,100128.44
2023-03-17T22:18:34.554Z,100123.44
2023-03-17T22:21:02.703Z,100121.31
2023-03-17T22:23:31.006Z,100127.72
2023-03-17T22:25:58.738Z,100125.34
2023-03-17T22:28:27.842Z,100130.94
2023-03-17T22:30:56.025Z,100127.81
2023-03-17T22:33:23.766Z,100123.88
2023-03-17T22:35:51.557Z,100121.81
2023-03-17T22:38:19.393Z,100126.97
2023-03-17T22:40:47.180Z,100127.25
2023-03-17T22:43:14.930Z,100117.03
2023-03-17T22:45:44.062Z,100124.91
2023-03-17T22:48:12.007Z,100123.56
2023-03-17T22:50:39.752Z,100117.84
2023-03-17T22:53:07.766Z,100121.06
2023-03-17T22:55:36.381Z,100114.13
2023-03-17T22:58:04.205Z,100111.25
2023-03-17T23:00:32.398Z,100106.59
2023-03-17T23:03:01.863Z,100105.78
2023-03-17T23:05:29.740Z,100102.06
2023-03-17T23:07:57.529Z,100095.66
2023-03-17T23:10:25.461Z,100090.13
2023-03-17T23:12:53.807Z,100086.88
2023-03-17T23:15:22.178Z,100088.47
2023-03-17T23:17:50.020Z,100088.50
2023-03-17T23:20:19.326Z,100090.78
2023-03-17T23:22:47.047Z,100081.97
2023-03-17T23:25:15.443Z,100080.06
2023-03-17T23:27:43.160Z,100073.06
2023-03-17T23:30:12.834Z,100067.00
2023-03-17T23:32:41.686Z,100059.44
2023-03-17T23:35:10.564Z,100060.28
2023-03-17T23:37:39.701Z,100056.00
2023-03-17T23:40:09.802Z,100049.50
2023-03-17T23:42:38.003Z,100048.31
2023-03-17T23:45:06.577Z,100038.25
2023-03-17T23:47:34.410Z,100043.53
2023-03-17T23:50:02.244Z,100044.41
2023-03-17T23:52:30.584Z,100046.56
2023-03-17T23:55:01.024Z,100046.38
2023-03-17T23:57:28.984Z,100037.94
2023-03-17T23:59:57.104Z,100042.59
